Time,TemperatureF,DewpointF,PressureIn,WindDirection,WindDirectionDegrees,WindSpeedMPH,WindSpeedGustMPH,Humidity,HourlyPrecipIn,Conditions,Clouds,dailyrainin,SoftwareType,DateUTC
2013-06-17 00:01:00,73.0,55.0,30.02,WNW,284,0.0,2.0,54,0.00,,,0.00,,2013-06-17 08:01:00,
2013-06-17 00:11:00,73.0,55.0,30.02,WNW,284,0.0,2.0,54,0.00,,,0.00,,2013-06-17 08:11:00,
2013-06-17 00:22:00,72.0,55.0,30.02,WNW,285,0.0,2.0,56,0.00,,,0.00,,2013-06-17 08:22:00,
2013-06-17 00:33:00,71.0,54.0,30.02,WNW,285,0.0,2.0,56,0.00,,,0.00,,2013-06-17 08:33:00,
2013-06-17 00:43:00,70.0,55.0,30.02,West,275,0.0,1.0,59,0.00,,,0.00,,2013-06-17 08:43:00,
2013-06-17 00:52:00,70.0,55.0,30.02,West,275,0.0,1.0,59,0.00,,,0.00,,2013-06-17 08:52:00,
2013-06-17 01:02:00,69.0,55.0,30.03,West,275,0.0,1.0,61,0.00,,,0.00,,2013-06-17 09:02:00,
2013-06-17 01:11:00,69.0,55.0,30.03,West,275,0.0,1.0,61,0.00,,,0.00,,2013-06-17 09:11:00,
2013-06-17 01:22:00,68.0,54.0,30.02,West,275,0.0,0.0,61,0.00,,,0.00,,2013-06-17 09:22:00,
2013-06-17 01:33:00,67.0,54.0,30.02,West,275,0.0,0.0,63,0.00,,,0.00,,2013-06-17 09:33:00,
2013-06-17 01:43:00,66.0,54.0,30.02,West,275,0.0,0.0,65,0.00,,,0.00,,2013-06-17 09:43:00,
2013-06-17 01:52:00,66.0,54.0,30.02,West,275,0.0,0.0,65,0.00,,,0.00,,2013-06-17 09:52:00,
2013-06-17 02:02:00,66.0,54.0,30.02,West,275,0.0,0.0,66,0.00,,,0.00,,2013-06-17 10:02:00,
2013-06-17 02:11:00,65.0,54.0,30.03,West,275,0.0,0.0,68,0.00,,,0.00,,2013-06-17 10:11:00,
2013-06-17 02:22:00,65.0,54.0,30.03,West,275,0.0,0.0,68,0.00,,,0.00,,2013-06-17 10:22:00,
2013-06-17 02:33:00,64.0,54.0,30.03,West,275,0.0,1.0,69,0.00,,,0.00,,2013-06-17 10:33:00,
2013-06-17 02:42:00,63.0,53.0,30.03,West,275,0.0,0.0,71,0.00,,,0.00,,2013-06-17 10:42:00,
2013-06-17 02:53:00,63.0,53.0,30.03,West,275,0.0,0.0,71,0.00,,,0.00,,2013-06-17 10:53:00,
2013-06-17 03:02:00,62.0,53.0,30.03,West,275,0.0,0.0,73,0.00,,,0.00,,2013-06-17 11:02:00,
2013-06-17 03:11:00,62.0,53.0,30.03,West,275,0.0,0.0,73,0.00,,,0.00,,2013-06-17 11:11:00,
2013-06-17 03:23:00,62.0,54.0,30.03,West,275,0.0,1.0,74,0.00,,,0.00,,2013-06-17 11:23:00,
2013-06-17 03:33:00,61.0,53.0,30.04,West,275,0.0,1.0,75,0.00,,,0.00,,2013-06-17 11:33:00,
2013-06-17 03:43:00,62.0,54.0,30.04,West,275,0.0,2.0,74,0.00,,,0.00,,2013-06-17 11:43:00,
2013-06-17 03:53:00,62.0,54.0,30.04,West,275,0.0,2.0,74,0.00,,,0.00,,2013-06-17 11:53:00,
2013-06-17 04:02:00,61.0,53.0,30.04,West,275,0.0,0.0,74,0.00,,,0.00,,2013-06-17 12:02:00,
2013-06-17 04:11:00,61.0,53.0,30.04,West,275,0.0,0.0,74,0.00,,,0.00,,2013-06-17 12:11:00,
2013-06-17 04:22:00,60.0,53.0,30.05,West,275,0.0,1.0,77,0.00,,,0.00,,2013-06-17 12:22:00,
2013-06-17 04:33:00,60.0,53.0,30.05,West,275,0.0,1.0,78,0.00,,,0.00,,2013-06-17 12:33:00,
2013-06-17 04:43:00,59.0,52.0,30.05,West,275,0.0,1.0,78,0.00,,,0.00,,2013-06-17 12:43:00,
2013-06-17 04:53:00,59.0,52.0,30.05,West,275,0.0,1.0,78,0.00,,,0.00,,2013-06-17 12:53:00,
2013-06-17 05:01:00,59.0,52.0,30.06,West,275,0.0,1.0,79,0.00,,,0.00,,2013-06-17 13:01:00,
2013-06-17 05:11:00,58.0,52.0,30.06,West,275,0.0,1.0,80,0.00,,,0.00,,2013-06-17 13:11:00,
2013-06-17 05:22:00,58.0,52.0,30.06,West,275,0.0,1.0,80,0.00,,,0.00,,2013-06-17 13:22:00,
2013-06-17 05:32:00,58.0,52.0,30.06,West,275,0.0,1.0,81,0.00,,,0.00,,2013-06-17 13:32:00,
2013-06-17 05:43:00,59.0,52.0,30.06,West,275,0.0,1.0,79,0.00,,,0.00,,2013-06-17 13:43:00,
2013-06-17 05:52:00,59.0,52.0,30.06,West,275,0.0,1.0,79,0.00,,,0.00,,2013-06-17 13:52:00,
2013-06-17 06:02:00,59.0,52.0,30.06,West,275,0.0,1.0,79,0.00,,,0.00,,2013-06-17 14:02:00,
2013-06-17 06:11:00,60.0,52.0,30.06,West,275,0.0,1.0,76,0.00,,,0.00,,2013-06-17 14:11:00,
2013-06-17 06:22:00,60.0,52.0,30.06,West,275,0.0,1.0,76,0.00,,,0.00,,2013-06-17 14:22:00,
2013-06-17 06:34:00,61.0,52.0,30.06,West,275,0.0,1.0,72,0.00,,,0.00,,2013-06-17 14:34:00,
2013-06-17 06:43:00,62.0,52.0,30.06,West,275,0.0,1.0,69,0.00,,,0.00,,2013-06-17 14:43:00,
2013-06-17 06:53:00,62.0,52.0,30.06,West,275,0.0,1.0,69,0.00,,,0.00,,2013-06-17 14:53:00,
2013-06-17 07:01:00,64.0,52.0,30.06,West,275,0.0,2.0,66,0.00,,,0.00,,2013-06-17 15:01:00,
2013-06-17 07:11:00,64.0,52.0,30.06,West,275,0.0,2.0,66,0.00,,,0.00,,2013-06-17 15:11:00,
2013-06-17 07:22:00,66.0,53.0,30.07,West,269,0.0,2.0,63,0.00,,,0.00,,2013-06-17 15:22:00,
2013-06-17 07:33:00,67.0,50.0,30.07,West,278,0.0,3.0,55,0.00,,,0.00,,2013-06-17 15:33:00,
2013-06-17 07:43:00,69.0,51.0,30.07,West,274,0.0,5.0,53,0.00,,,0.00,,2013-06-17 15:43:00,
2013-06-17 07:52:00,69.0,51.0,30.07,West,274,0.0,5.0,53,0.00,,,0.00,,2013-06-17 15:52:00,
2013-06-17 08:02:00,70.0,52.0,30.07,West,275,0.0,2.0,52,0.00,,,0.00,,2013-06-17 16:02:00,
2013-06-17 08:11:00,71.0,50.0,30.07,West,273,1.0,3.0,48,0.00,,,0.00,,2013-06-17 16:11:00,
2013-06-17 08:22:00,71.0,50.0,30.07,West,273,1.0,3.0,48,0.00,,,0.00,,2013-06-17 16:22:00,
2013-06-17 08:33:00,72.0,51.0,30.07,West,279,0.0,5.0,48,0.00,,,0.00,,2013-06-17 16:33:00,
2013-06-17 08:43:00,73.0,49.0,30.07,West,280,0.0,4.0,43,0.00,,,0.00,,2013-06-17 16:43:00,
2013-06-17 08:53:00,73.0,49.0,30.07,West,280,0.0,4.0,43,0.00,,,0.00,,2013-06-17 16:53:00,
2013-06-17 09:02:00,74.0,46.0,30.06,WNW,287,0.0,5.0,37,0.00,,,0.00,,2013-06-17 17:02:00,
2013-06-17 09:11:00,74.0,46.0,30.06,WNW,287,0.0,5.0,37,0.00,,,0.00,,2013-06-17 17:11:00,
2013-06-17 09:22:00,75.0,46.0,30.06,West,275,0.0,5.0,36,0.00,,,0.00,,2013-06-17 17:22:00,
2013-06-17 09:33:00,75.0,46.0,30.06,West,275,0.0,5.0,36,0.00,,,0.00,,2013-06-17 17:33:00,
2013-06-17 09:43:00,76.0,44.0,30.06,West,266,0.0,6.0,32,0.00,,,0.00,,2013-06-17 17:43:00,
2013-06-17 09:52:00,76.0,44.0,30.06,West,266,0.0,6.0,32,0.00,,,0.00,,2013-06-17 17:52:00,
2013-06-17 10:01:00,78.0,47.0,30.06,North,355,1.0,4.0,33,0.00,,,0.00,,2013-06-17 18:01:00,
2013-06-17 10:11:00,78.0,47.0,30.06,North,355,1.0,4.0,33,0.00,,,0.00,,2013-06-17 18:11:00,
2013-06-17 10:23:00,79.0,45.0,30.06,NE,51,1.0,5.0,30,0.00,,,0.00,,2013-06-17 18:23:00,
2013-06-17 10:33:00,79.0,40.0,30.06,North,355,1.0,9.0,25,0.00,,,0.00,,2013-06-17 18:33:00,
2013-06-17 10:42:00,79.0,40.0,30.06,SSW,203,1.0,6.0,25,0.00,,,0.00,,2013-06-17 18:42:00,
2013-06-17 10:53:00,79.0,40.0,30.06,SSW,203,1.0,6.0,25,0.00,,,0.00,,2013-06-17 18:53:00,
2013-06-17 11:02:00,80.0,37.0,30.06,NNE,18,3.0,9.0,21,0.00,,,0.00,,2013-06-17 19:02:00,
2013-06-17 11:11:00,80.0,37.0,30.06,NNE,18,3.0,9.0,21,0.00,,,0.00,,2013-06-17 19:11:00,
2013-06-17 11:22:00,79.0,37.0,30.06,NE,34,3.0,10.0,22,0.00,,,0.00,,2013-06-17 19:22:00,
2013-06-17 11:33:00,79.0,38.0,30.05,NNE,12,3.0,9.0,23,0.00,,,0.00,,2013-06-17 19:33:00,
2013-06-17 11:43:00,80.0,38.0,30.05,NNE,22,1.0,6.0,22,0.00,,,0.00,,2013-06-17 19:43:00,
2013-06-17 11:53:00,80.0,38.0,30.05,NNE,22,1.0,6.0,22,0.00,,,0.00,,2013-06-17 19:53:00,
2013-06-17 12:02:00,80.0,39.0,30.05,NNE,19,1.0,5.0,23,0.00,,,0.00,,2013-06-17 20:02:00,
2013-06-17 12:11:00,80.0,39.0,30.05,NNE,19,1.0,5.0,23,0.00,,,0.00,,2013-06-17 20:11:00,
2013-06-17 12:22:00,81.0,37.0,30.05,WNW,283,2.0,7.0,21,0.00,,,0.00,,2013-06-17 20:22:00,
2013-06-17 12:34:00,81.0,36.0,30.05,North,355,2.0,7.0,20,0.00,,,0.00,,2013-06-17 20:34:00,
2013-06-17 12:43:00,81.0,36.0,30.05,ENE,58,3.0,8.0,20,0.00,,,0.00,,2013-06-17 20:43:00,
2013-06-17 12:52:00,81.0,36.0,30.05,ENE,58,3.0,8.0,20,0.00,,,0.00,,2013-06-17 20:52:00,
2013-06-17 13:01:00,81.0,36.0,30.04,NNE,26,1.0,6.0,20,0.00,,,0.00,,2013-06-17 21:01:00,
2013-06-17 13:12:00,81.0,36.0,30.04,NNE,26,1.0,6.0,20,0.00,,,0.00,,2013-06-17 21:12:00,
2013-06-17 13:22:00,81.0,39.0,30.04,West,266,2.0,7.0,22,0.00,,,0.00,,2013-06-17 21:22:00,
2013-06-17 13:33:00,83.0,38.0,30.03,North,355,2.0,7.0,20,0.00,,,0.00,,2013-06-17 21:33:00,
2013-06-17 13:43:00,83.0,36.0,30.03,WSW,239,1.0,7.0,19,0.00,,,0.00,,2013-06-17 21:43:00,
2013-06-17 13:52:00,83.0,36.0,30.03,WSW,239,1.0,7.0,19,0.00,,,0.00,,2013-06-17 21:52:00,
2013-06-17 14:01:00,83.0,38.0,30.03,NW,308,2.0,6.0,20,0.00,,,0.00,,2013-06-17 22:01:00,
2013-06-17 14:11:00,83.0,38.0,30.03,NW,308,2.0,6.0,20,0.00,,,0.00,,2013-06-17 22:11:00,
2013-06-17 14:22:00,83.0,38.0,30.03,NW,308,2.0,6.0,20,0.00,,,0.00,,2013-06-17 22:22:00,
2013-06-17 14:33:00,83.0,39.0,30.02,ENE,57,2.0,6.0,21,0.00,,,0.00,,2013-06-17 22:33:00,
2013-06-17 14:43:00,83.0,35.0,30.02,North,349,4.0,11.0,18,0.00,,,0.00,,2013-06-17 22:43:00,
2013-06-17 14:53:00,83.0,35.0,30.02,North,349,4.0,11.0,18,0.00,,,0.00,,2013-06-17 22:53:00,
2013-06-17 15:02:00,83.0,35.0,30.02,WNW,298,2.0,9.0,18,0.00,,,0.00,,2013-06-17 23:02:00,
2013-06-17 15:11:00,83.0,35.0,30.02,WNW,298,2.0,9.0,18,0.00,,,0.00,,2013-06-17 23:11:00,
2013-06-17 15:22:00,83.0,34.0,30.01,ESE,107,2.0,8.0,17,0.00,,,0.00,,2013-06-17 23:22:00,
2013-06-17 15:32:00,84.0,39.0,30.01,NE,48,1.0,9.0,20,0.00,,,0.00,,2013-06-17 23:32:00,
2013-06-17 15:42:00,84.0,33.0,30.01,NE,45,3.0,12.0,16,0.00,,,0.00,,2013-06-17 23:42:00,
2013-06-17 15:52:00,84.0,33.0,30.01,NE,45,3.0,12.0,16,0.00,,,0.00,,2013-06-17 23:52:00,
2013-06-17 16:01:00,84.0,37.0,30.01,SE,134,3.0,11.0,19,0.00,,,0.00,,2013-06-18 00:01:00,
2013-06-17 16:12:00,84.0,37.0,30.01,SE,134,3.0,11.0,19,0.00,,,0.00,,2013-06-18 00:12:00,
2013-06-17 16:22:00,83.0,32.0,30.00,East,98,3.0,10.0,16,0.00,,,0.00,,2013-06-18 00:22:00,
2013-06-17 16:32:00,83.0,34.0,30.00,NNE,29,2.0,6.0,17,0.00,,,0.00,,2013-06-18 00:32:00,
2013-06-17 16:43:00,83.0,34.0,29.99,North,360,0.0,4.0,17,0.00,,,0.00,,2013-06-18 00:43:00,
2013-06-17 16:52:00,83.0,34.0,29.99,North,360,0.0,4.0,17,0.00,,,0.00,,2013-06-18 00:52:00,
2013-06-17 17:01:00,83.0,32.0,29.98,NNW,336,2.0,9.0,16,0.00,,,0.00,,2013-06-18 01:01:00,
2013-06-17 17:11:00,83.0,32.0,29.98,NNW,336,2.0,9.0,16,0.00,,,0.00,,2013-06-18 01:11:00,
2013-06-17 17:22:00,83.0,32.0,29.98,NNE,28,2.0,7.0,16,0.00,,,0.00,,2013-06-18 01:22:00,
2013-06-17 17:33:00,83.0,29.0,29.98,West,259,2.0,7.0,14,0.00,,,0.00,,2013-06-18 01:33:00,
2013-06-17 17:44:00,83.0,29.0,29.97,NE,44,3.0,13.0,14,0.00,,,0.00,,2013-06-18 01:44:00,
2013-06-17 17:53:00,83.0,29.0,29.97,NE,44,3.0,13.0,14,0.00,,,0.00,,2013-06-18 01:53:00,
2013-06-17 18:02:00,83.0,31.0,29.97,ENE,64,2.0,11.0,15,0.00,,,0.00,,2013-06-18 02:02:00,
2013-06-17 18:11:00,83.0,31.0,29.97,ENE,64,2.0,11.0,15,0.00,,,0.00,,2013-06-18 02:11:00,
2013-06-17 18:22:00,83.0,29.0,29.97,NNW,336,4.0,11.0,14,0.00,,,0.00,,2013-06-18 02:22:00,
2013-06-17 18:33:00,83.0,31.0,29.96,NE,51,3.0,12.0,15,0.00,,,0.00,,2013-06-18 02:33:00,
2013-06-17 18:43:00,83.0,31.0,29.96,NE,51,3.0,12.0,15,0.00,,,0.00,,2013-06-18 02:43:00,
2013-06-17 18:53:00,83.0,32.0,29.96,North,355,2.0,8.0,16,0.00,,,0.00,,2013-06-18 02:53:00,
2013-06-17 19:02:00,83.0,32.0,29.96,West,272,3.0,8.0,16,0.00,,,0.00,,2013-06-18 03:02:00,
2013-06-17 19:11:00,83.0,32.0,29.96,West,272,3.0,8.0,16,0.00,,,0.00,,2013-06-18 03:11:00,
2013-06-17 19:23:00,82.0,33.0,29.95,NNE,19,1.0,5.0,17,0.00,,,0.00,,2013-06-18 03:23:00,
2013-06-17 19:33:00,82.0,33.0,29.95,WNW,299,2.0,7.0,17,0.00,,,0.00,,2013-06-18 03:33:00,
2013-06-17 19:42:00,82.0,33.0,29.95,WNW,299,2.0,7.0,17,0.00,,,0.00,,2013-06-18 03:42:00,
2013-06-17 19:53:00,82.0,34.0,29.95,NW,313,1.0,7.0,18,0.00,,,0.00,,2013-06-18 03:53:00,
2013-06-17 20:01:00,81.0,33.0,29.94,North,360,1.0,8.0,18,0.00,,,0.00,,2013-06-18 04:01:00,
2013-06-17 20:11:00,81.0,33.0,29.94,North,360,1.0,8.0,18,0.00,,,0.00,,2013-06-18 04:11:00,
2013-06-17 20:22:00,81.0,33.0,29.94,NE,34,1.0,7.0,18,0.00,,,0.00,,2013-06-18 04:22:00,
2013-06-17 20:33:00,81.0,33.0,29.94,NE,34,1.0,7.0,18,0.00,,,0.00,,2013-06-18 04:33:00,
2013-06-17 20:42:00,81.0,33.0,29.94,NE,34,1.0,7.0,18,0.00,,,0.00,,2013-06-18 04:42:00,
2013-06-17 20:53:00,80.0,35.0,29.94,North,11,2.0,10.0,20,0.00,,,0.00,,2013-06-18 04:53:00,
2013-06-17 21:02:00,80.0,35.0,29.94,NNW,337,1.0,6.0,20,0.00,,,0.00,,2013-06-18 05:02:00,
2013-06-17 21:12:00,80.0,35.0,29.94,NNW,337,1.0,6.0,20,0.00,,,0.00,,2013-06-18 05:12:00,
2013-06-17 21:22:00,79.0,36.0,29.94,North,5,0.0,4.0,21,0.00,,,0.00,,2013-06-18 05:22:00,
2013-06-17 21:33:00,79.0,37.0,29.94,SSW,194,2.0,9.0,22,0.00,,,0.00,,2013-06-18 05:33:00,
2013-06-17 21:43:00,79.0,37.0,29.94,SSW,194,2.0,9.0,22,0.00,,,0.00,,2013-06-18 05:43:00,
2013-06-17 21:53:00,78.0,37.0,29.94,WNW,300,1.0,9.0,23,0.00,,,0.00,,2013-06-18 05:53:00,
2013-06-17 22:02:00,77.0,37.0,29.94,NNW,341,0.0,4.0,24,0.00,,,0.00,,2013-06-18 06:02:00,
2013-06-17 22:11:00,77.0,37.0,29.94,NNW,341,0.0,4.0,24,0.00,,,0.00,,2013-06-18 06:11:00,
2013-06-17 22:23:00,77.0,37.0,29.94,NNW,341,0.0,4.0,24,0.00,,,0.00,,2013-06-18 06:23:00,
2013-06-17 22:32:00,76.0,38.0,29.95,NNE,17,1.0,5.0,25,0.00,,,0.00,,2013-06-18 06:32:00,
2013-06-17 22:43:00,75.0,38.0,29.95,NE,34,0.0,6.0,26,0.00,,,0.00,,2013-06-18 06:43:00,
2013-06-17 22:53:00,74.0,38.0,29.95,WSW,255,0.0,4.0,27,0.00,,,0.00,,2013-06-18 06:53:00,
2013-06-17 23:02:00,74.0,38.0,29.95,WSW,255,0.0,4.0,27,0.00,,,0.00,,2013-06-18 07:02:00,
2013-06-17 23:12:00,73.0,38.0,29.95,WNW,298,0.0,5.0,28,0.00,,,0.00,,2013-06-18 07:12:00,
2013-06-17 23:22:00,72.0,39.0,29.96,West,279,0.0,3.0,30,0.00,,,0.00,,2013-06-18 07:22:00,
2013-06-17 23:33:00,71.0,38.0,29.96,WNW,296,0.0,2.0,30,0.00,,,0.00,,2013-06-18 07:33:00,
2013-06-17 23:42:00,71.0,38.0,29.96,WNW,296,0.0,2.0,30,0.00,,,0.00,,2013-06-18 07:42:00,
2013-06-17 23:53:00,71.0,39.0,29.96,WNW,300,0.0,3.0,31,0.00,,,0.00,,2013-06-18 07:53:00,